Data for 05/21/2008

Time Sea-Level Adjusted Pressure Absolute Pressure Temperature Relative Humidity Dew Point   
(mb) (inHg) (mb) (inHg) (C) (F) (%) (C) (F)
00:05 1003 29.62 832 24.57 18.4 65.1 35 2.9 37.2
00:10 1003 29.62 832 24.57 18.2 64.7 38 3.9 39
00:15 1003 29.62 832 24.57 18.1 64.5 39 4 39.2
00:20 1003 29.62 832 24.57 18.1 64.5 40 4.5 40
00:25 1003 29.62 833 24.6 18 64.5 41 4.7 40.4
00:30 1003 29.62 833 24.6 18 64.4 41 4.8 40.7
00:35 1003 29.62 833 24.6 18 64.5 41 4.9 40.7
00:40 1004 29.65 833 24.6 18 64.5 42 4.9 40.9
00:45 1004 29.65 833 24.6 18 64.5 41 4.6 40.3
00:50 1004 29.65 833 24.6 18.1 64.6 42 5.1 41.2
00:55 1005 29.68 834 24.63 17.9 64.3 42 5.1 41.1
01:00 1005 29.68 834 24.63 17.8 64 42 5 40.9
01:05 1005 29.68 834 24.63 17.8 64 48 6.8 44.2
01:10 1005 29.68 834 24.63 16.5 61.7 59 8.4 47.2
01:15 1005 29.68 834 24.63 15.1 59.2 63 8.2 46.8
01:20 1005 29.68 834 24.63 14.1 57.3 66 7.9 46.2
01:25 1005 29.68 834 24.63 13.5 56.2 68 7.6 45.7
01:30 1005 29.68 834 24.63 12.9 55.2 68 7.3 45.1
01:35 1005 29.68 834 24.63 12.4 54.4 69 6.9 44.4
01:40 1005 29.68 835 24.66 12.1 53.8 69 6.7 44.1
01:45 1005 29.68 835 24.66 11.8 53.2 71 6.7 44
01:50 1006 29.71 835 24.66 11.5 52.6 72 6.6 43.8
01:55 1006 29.71 835 24.66 11.3 52.3 73 6.6 43.8
02:00 1006 29.71 835 24.66 11.1 52 73 6.5 43.7
02:05 1006 29.71 835 24.66 10.9 51.7 74 6.5 43.8
02:10 1006 29.71 835 24.66 11 51.8 75 6.8 44.3
02:15 1006 29.71 835 24.66 11.1 52 76 7.1 44.8
02:20 1006 29.71 835 24.66 11.2 52.2 76 7.2 44.9
02:25 1006 29.71 835 24.66 11.2 52.1 76 7.2 44.9
02:30 1006 29.71 835 24.66 11.1 52 78 7.4 45.3
02:35 1006 29.71 836 24.69 11.2 52.1 79 7.6 45.8
02:40 1007 29.74 836 24.69 11.2 52.2 83 8.4 47.1
02:45 1007 29.74 836 24.69 11 51.8 85 8.6 47.5
02:50 1007 29.74 836 24.69 10.8 51.4 86 8.5 47.3
02:55 1007 29.74 836 24.69 10.6 51.2 86 8.4 47.1
03:00 1007 29.74 836 24.69 10.6 51.1 85 8.2 46.8
03:05 1007 29.74 836 24.69 10.6 51 85 8.1 46.6
03:10 1007 29.74 836 24.69 10.5 50.8 84 7.9 46.2
03:15 1007 29.74 836 24.69 10.4 50.6 84 7.8 46
03:20 1007 29.74 836 24.69 10 50 84 7.5 45.5
03:25 1007 29.74 836 24.69 9.7 49.5 85 7.3 45.2
03:30 1007 29.74 836 24.69 9.6 49.2 86 7.3 45.1
03:35 1007 29.74 836 24.69 9.4 48.8 86 7.2 44.9
03:40 1007 29.74 836 24.69 9.3 48.7 85 7 44.5
03:45 1007 29.74 836 24.69 9.2 48.5 86 6.9 44.5
03:50 1007 29.74 836 24.69 9.2 48.5 86 7 44.6
03:55 1007 29.74 836 24.69 9.1 48.3 86 6.9 44.5
04:00 1007 29.74 836 24.69 8.9 47.9 87 6.8 44.3
04:05 1007 29.74 836 24.69 8.7 47.6 87 6.6 43.9
04:10 1007 29.74 836 24.69 8.6 47.4 87 6.5 43.7
04:15 1007 29.74 836 24.69 8.4 47.2 86 6.2 43.2
04:20 1007 29.74 836 24.69 8.3 47 85 6 42.9
04:25 1007 29.74 836 24.69 8.2 46.8 85 5.8 42.4
04:30 1007 29.74 836 24.69 8.1 46.6 85 5.7 42.3
04:35 1007 29.74 836 24.69 8 46.3 85 5.6 42
04:40 1007 29.74 837 24.72 7.8 46 86 5.5 42
04:45 1007 29.74 837 24.72 7.6 45.6 86 5.4 41.8
04:50 1008 29.77 837 24.72 7.4 45.3 87 5.3 41.6
04:55 1008 29.77 837 24.72 7.3 45.1 87 5.3 41.5
05:00 1008 29.77 837 24.72 7.2 45 88 5.4 41.7
05:05 1008 29.77 837 24.72 7.2 45 89 5.5 41.8
05:10 1008 29.77 837 24.72 7.2 44.9 89 5.4 41.8
05:15 1008 29.77 837 24.72 7.1 44.7 89 5.3 41.6
05:20 1008 29.77 837 24.72 6.9 44.5 89 5.3 41.5
05:25 1008 29.77 837 24.72 6.8 44.2 90 5.2 41.3
05:30 1008 29.77 837 24.72 6.6 43.9 91 5.2 41.4
05:35 1008 29.77 837 24.72 6.4 43.6 91 5.1 41.1
05:40 1008 29.77 837 24.72 6 42.9 92 4.8 40.6
05:45 1008 29.77 837 24.72 5.6 42.1 92 4.4 39.8
05:50 1008 29.77 837 24.72 5.3 41.5 92 4.1 39.4
05:55 1008 29.77 837 24.72 5.1 41.2 93 4.1 39.3
06:00 1008 29.77 837 24.72 5.1 41.1 93 4.1 39.3
06:05 1008 29.77 837 24.72 5.1 41.2 93 4.1 39.3
06:10 1008 29.77 837 24.72 5.2 41.4 92 4 39.2
06:15 1008 29.77 838 24.75 5.3 41.5 91 3.9 39.1
06:20 1008 29.77 838 24.75 5.4 41.7 91 4 39.2
06:25 1008 29.77 838 24.75 5.4 41.8 91 4.1 39.5
06:30 1009 29.8 838 24.75 5.5 41.9 92 4.3 39.7
06:35 1009 29.8 838 24.75 5.5 42 92 4.4 40
06:40 1009 29.8 838 24.75 5.6 42 92 4.4 39.9
06:45 1009 29.8 838 24.75 5.4 41.7 91 4 39.3
06:50 1009 29.8 838 24.75 5.2 41.3 90 3.7 38.7
06:55 1009 29.8 838 24.75 4.9 40.8 90 3.4 38.2
07:00 1009 29.8 838 24.75 4.6 40.3 90 3.1 37.6
07:05 1009 29.8 838 24.75 4.5 40.1 90 3.1 37.5
07:10 1009 29.8 838 24.75 4.6 40.3 91 3.2 37.8
07:15 1009 29.8 838 24.75 4.7 40.5 90 3.3 37.9
07:20 1009 29.8 838 24.75 4.8 40.6 91 3.3 38
07:25 1009 29.8 838 24.75 4.8 40.7 91 3.4 38.2
07:30 1009 29.8 838 24.75 4.9 40.8 91 3.5 38.4
07:35 1009 29.8 838 24.75 4.7 40.4 90 3.2 37.8
07:40 1009 29.8 838 24.75 4.4 39.9 92 3.2 37.8
07:45 1009 29.8 838 24.75 4.3 39.7 92 3.2 37.7
07:50 1009 29.8 838 24.75 4 39.2 93 3 37.4
07:55 1009 29.8 838 24.75 3.6 38.5 94 2.8 37
08:00 1009 29.8 838 24.75 3.5 38.3 95 2.8 37
08:05 1009 29.8 838 24.75 3.5 38.3 96 2.9 37.2
08:10 1009 29.8 838 24.75 3.5 38.3 96 3 37.3
08:15 1009 29.8 838 24.75 3.6 38.4 96 3.1 37.5
08:20 1009 29.8 838 24.75 3.7 38.7 96 3.2 37.7
08:25 1009 29.8 838 24.75 3.9 39 97 3.4 38.2
08:30 1009 29.8 838 24.75 4 39.2 96 3.5 38.3
08:35 1009 29.8 838 24.75 4.1 39.4 96 3.5 38.3
08:40 1009 29.8 838 24.75 4.1 39.3 96 3.5 38.3
08:45 1009 29.8 838 24.75 4.3 39.8 96 3.8 38.8
08:50 1009 29.8 838 24.75 4.4 39.9 96 3.7 38.7
08:55 1009 29.8 838 24.75 4.2 39.5 97 3.7 38.6
09:00 1009 29.8 838 24.75 4.2 39.6 96 3.7 38.7
09:05 1009 29.8 838 24.75 4.4 39.9 96 3.8 38.8
09:10 1009 29.8 838 24.75 4.4 39.9 95 3.7 38.7
09:15 1009 29.8 838 24.75 4.4 40 95 3.7 38.6
09:20 1009 29.8 838 24.75 4.5 40.2 94 3.7 38.7
09:25 1009 29.8 838 24.75 4.6 40.2 94 3.6 38.5
09:30 1009 29.8 838 24.75 4.6 40.2 94 3.6 38.5
09:35 1009 29.8 838 24.75 4.6 40.4 93 3.6 38.5
09:40 1009 29.8 838 24.75 4.7 40.4 93 3.7 38.6
09:45 1009 29.8 838 24.75 4.7 40.5 93 3.6 38.5
09:50 1009 29.8 838 24.75 4.6 40.3 93 3.6 38.4
09:55 1009 29.8 838 24.75 4.7 40.4 94 3.7 38.7
10:00 1009 29.8 838 24.75 4.7 40.4 93 3.7 38.6
10:05 1009 29.8 838 24.75 4.3 39.8 93 3.3 38
10:10 1009 29.8 838 24.75 4.2 39.6 94 3.3 37.9
10:15 1008 29.77 838 24.75 4.3 39.7 94 3.5 38.2
10:20 1009 29.8 838 24.75 3.8 38.9 94 3 37.4
10:25 1009 29.8 838 24.75 3.6 38.4 96 2.9 37.3
10:30 1009 29.8 838 24.75 3.7 38.6 96 3.1 37.5
10:35 1009 29.8 838 24.75 3.8 38.9 95 3.1 37.7
10:40 1009 29.8 838 24.75 3.9 39.1 96 3.3 37.9
10:45 1009 29.8 838 24.75 4.1 39.3 96 3.4 38.2
10:50 1009 29.8 838 24.75 4.1 39.4 95 3.4 38.1
10:55 1009 29.8 838 24.75 4.1 39.4 96 3.5 38.3
11:00 1009 29.8 838 24.75 4.3 39.7 96 3.6 38.6
11:05 1009 29.8 838 24.75 4.5 40 95 3.8 38.8
11:10 1009 29.8 838 24.75 4.5 40.2 95 3.8 38.9
11:15 1009 29.8 838 24.75 4.6 40.3 95 3.8 38.9
11:20 1009 29.8 838 24.75 4.7 40.4 94 3.8 38.8
11:25 1009 29.8 838 24.75 4.7 40.4 94 3.7 38.7
11:30 1009 29.8 838 24.75 4.7 40.5 94 3.8 38.8
11:35 1009 29.8 838 24.75 4.7 40.4 94 3.8 38.8
11:40 1009 29.8 838 24.75 4.8 40.6 94 3.9 39
11:45 1009 29.8 838 24.75 4.9 40.7 94 4 39.3
11:50 1009 29.8 838 24.75 5 41.1 94 4.2 39.5
11:55 1009 29.8 838 24.75 5.3 41.5 94 4.4 39.9
12:00 1009 29.8 838 24.75 5.3 41.6 93 4.3 39.7
12:05 1009 29.8 838 24.75 5.1 41.2 92 3.9 39
12:10 1009 29.8 838 24.75 5 41 93 4 39.2
12:15 1009 29.8 838 24.75 4.9 40.9 93 3.8 38.9
12:20 1009 29.8 838 24.75 4.8 40.6 93 3.7 38.7
12:25 1009 29.8 838 24.75 4.6 40.3 94 3.8 38.8
12:30 1009 29.8 838 24.75 4.5 40 94 3.6 38.4
12:35 1009 29.8 838 24.75 4.1 39.4 95 3.3 38
12:40 1009 29.8 838 24.75 4.4 40 95 3.6 38.5
12:45 1009 29.8 838 24.75 4.5 40.1 93 3.5 38.3
12:50 1009 29.8 838 24.75 4.2 39.6 94 3.3 37.9
12:55 1009 29.8 838 24.75 4.1 39.4 94 3.2 37.7
13:00 1009 29.8 838 24.75 4.3 39.8 93 3.3 38
13:05 1009 29.8 838 24.75 4.3 39.7 94 3.3 38
13:10 1009 29.8 838 24.75 4.3 39.7 94 3.4 38
13:15 1009 29.8 838 24.75 4.6 40.2 93 3.5 38.3
13:20 1009 29.8 838 24.75 4.6 40.2 93 3.5 38.3
13:25 1009 29.8 838 24.75 4.6 40.2 92 3.4 38.1
13:30 1009 29.8 838 24.75 4.5 40.2 93 3.5 38.2
13:35 1009 29.8 838 24.75 4.6 40.3 92 3.4 38.2
13:40 1009 29.8 838 24.75 3.9 39.1 93 2.8 37.1
13:45 1009 29.8 838 24.75 3.6 38.6 94 2.7 36.9
13:50 1009 29.8 838 24.75 3.8 38.8 94 2.9 37.1
13:55 1009 29.8 838 24.75 3.9 39 94 3 37.4
14:00 1009 29.8 838 24.75 3.9 39 94 2.9 37.3
14:05 1009 29.8 839 24.78 4 39.3 94 3.2 37.8
14:10 1009 29.8 839 24.78 4.2 39.6 93 3.2 37.7
14:15 1009 29.8 839 24.78 4.2 39.6 93 3.2 37.8
14:20 1010 29.83 839 24.78 4.4 40 92 3.3 38
14:25 1010 29.83 839 24.78 4.5 40 91 3.1 37.6
14:30 1010 29.83 839 24.78 4.2 39.6 91 2.9 37.2
14:35 1010 29.83 839 24.78 4.1 39.3 91 2.8 37
14:40 1010 29.83 839 24.78 4 39.2 92 2.8 37.1
14:45 1010 29.83 839 24.78 4 39.2 92 2.9 37.1
14:50 1010 29.83 839 24.78 3.9 39 92 2.8 37
14:55 1009 29.8 839 24.78 3.8 38.9 93 2.8 37.1
15:00 1009 29.8 839 24.78 3.9 38.9 94 3 37.3
15:05 1009 29.8 839 24.78 4 39.2 94 3.1 37.5
15:10 1009 29.8 839 24.78 4 39.2 94 3.1 37.5
15:15 1010 29.83 839 24.78 3.7 38.7 93 2.7 36.8
15:20 1010 29.83 839 24.78 2.8 37 95 2 35.6
15:25 1010 29.83 839 24.78 2.5 36.5 96 1.9 35.5
15:30 1010 29.83 839 24.78 2.5 36.5 96 1.9 35.5
15:35 1010 29.83 839 24.78 2.7 36.8 97 2.2 36
15:40 1010 29.83 839 24.78 2.6 36.7 96 2.1 35.7
15:45 1010 29.83 839 24.78 2.3 36.1 97 1.9 35.4
15:50 1010 29.83 839 24.78 2.4 36.3 97 2 35.5
15:55 1010 29.83 839 24.78 2.4 36.3 98 2.1 35.7
16:00 1010 29.83 839 24.78 2.5 36.5 98 2.2 35.9
16:05 1010 29.83 839 24.78 2.5 36.6 98 2.2 36
16:10 1010 29.83 839 24.78 2.4 36.4 98 2.2 36
16:15 1010 29.83 839 24.78 2.7 36.8 98 2.4 36.3
16:20 1010 29.83 839 24.78 2.6 36.7 163 9.7 49.4
16:25 1010 29.83 839 24.78 2.8 37 164 9.9 49.8
16:30 1010 29.83 839 24.78 2.9 37.1 164 10 49.9
16:35 1010 29.83 839 24.78 2.8 37.1 164 9.9 49.9
16:40 1010 29.83 839 24.78 3.4 38.1 164 10.5 51
16:45 1010 29.83 839 24.78 3.8 38.9 164 11 51.8
16:50 1010 29.83 839 24.78 4.1 39.3 164 11.3 52.3
16:55 1010 29.83 839 24.78 4 39.3 164 11.2 52.2
17:00 1010 29.83 839 24.78 4.3 39.7 164 11.5 52.6
17:05 1010 29.83 839 24.78 4.4 39.9 164 11.6 52.8
17:10 1010 29.83 839 24.78 4.3 39.7 164 11.5 52.7
17:15 1010 29.83 839 24.78 4.2 39.6 164 11.4 52.5
17:20 1010 29.83 839 24.78 4.2 39.5 164 11.4 52.4
17:25 1010 29.83 839 24.78 4.1 39.5 164 11.3 52.4
17:30 1010 29.83 839 24.78 4.3 39.8 164 11.5 52.8
17:35 1009 29.8 839 24.78 4.4 39.9 164 11.6 52.8
17:40 1010 29.83 839 24.78 4.4 39.9 164 11.6 52.8
17:45 1010 29.83 839 24.78 4.3 39.8 164 11.5 52.7
17:50 1009 29.8 838 24.75 4.3 39.7 164 11.5 52.6
17:55 1009 29.8 838 24.75 4.3 39.7 164 11.4 52.6
18:00 1009 29.8 838 24.75 4.3 39.8 164 11.5 52.8
18:05 1009 29.8 838 24.75 4.3 39.7 164 11.5 52.7
18:10 1009 29.8 838 24.75 4.3 39.8 164 11.5 52.7
18:15 1009 29.8 838 24.75 4.4 40 164 11.6 52.9
18:20 1009 29.8 839 24.78 4.3 39.7 164 11.5 52.7
18:25 1009 29.8 838 24.75 3.9 39 164 11.1 51.9
18:30 1009 29.8 838 24.75 3.8 38.8 164 10.9 51.7
18:35 1009 29.8 838 24.75 3.9 39 164 11 51.9
18:40 1009 29.8 838 24.75 3.8 38.9 164 11 51.8
18:45 1009 29.8 838 24.75 3.7 38.7 164 10.9 51.6
18:50 1009 29.8 838 24.75 3.6 38.6 164 10.8 51.5
18:55 1009 29.8 838 24.75 3.6 38.5 164 10.8 51.4
19:00 1009 29.8 838 24.75 3.6 38.5 164 10.8 51.4
19:05 1009 29.8 838 24.75 3.5 38.2 164 10.6 51.1
19:10 1009 29.8 838 24.75 3.4 38.1 164 10.6 51
19:15 1009 29.8 838 24.75 3.4 38.1 164 10.6 51
19:20 1009 29.8 838 24.75 3.5 38.2 164 10.6 51.1
19:25 1009 29.8 839 24.78 3.6 38.5 164 10.8 51.4
19:30 1009 29.8 839 24.78 3.7 38.7 164 10.9 51.6
19:35 1009 29.8 838 24.75 3.9 38.9 164 11 51.9
19:40 1009 29.8 838 24.75 3.8 38.8 164 11 51.8
19:45 1009 29.8 839 24.78 3.8 38.8 164 11 51.7
19:50 1009 29.8 839 24.78 3.7 38.7 164 10.9 51.6
19:55 1009 29.8 838 24.75 3.6 38.5 164 10.8 51.4
20:00 1009 29.8 838 24.75 3.6 38.5 164 10.8 51.4
20:05 1009 29.8 838 24.75 3.7 38.7 164 10.9 51.6
20:10 1009 29.8 838 24.75 4 39.2 164 11.2 52.1
20:15 1009 29.8 838 24.75 4.1 39.3 164 11.3 52.3
20:20 1009 29.8 838 24.75 4 39.3 164 11.2 52.2
20:25 1009 29.8 838 24.75 4 39.2 164 11.2 52.2
20:30 1009 29.8 838 24.75 3.8 38.9 164 11 51.8
20:35 1009 29.8 838 24.75 3.7 38.7 164 10.9 51.6
20:40 1009 29.8 838 24.75 3.6 38.5 164 10.8 51.4
20:45 1009 29.8 838 24.75 3.3 38 164 10.5 50.8
20:50 1009 29.8 838 24.75 3.1 37.7 164 10.3 50.5
20:55 1009 29.8 838 24.75 3.2 37.7 164 10.3 50.6
21:00 1009 29.8 838 24.75 3.1 37.5 164 10.2 50.4
21:05 1009 29.8 838 24.75 3.1 37.5 164 10.2 50.4
21:10 1009 29.8 838 24.75 3 37.4 164 10.1 50.2
21:15 1009 29.8 838 24.75 3 37.4 164 10.2 50.3
21:20 1009 29.8 838 24.75 3.1 37.6 164 10.2 50.4
21:25 1009 29.8 838 24.75 3.1 37.5 164 10.2 50.4
21:30 1009 29.8 838 24.75 2.9 37.2 164 10 50
21:35 1009 29.8 838 24.75 2.8 37 164 9.9 49.8
21:40 1009 29.8 838 24.75 2.7 36.8 164 9.8 49.6
21:45 1009 29.8 838 24.75 2.6 36.6 164 9.7 49.5
21:50 1009 29.8 838 24.75 2.5 36.4 164 9.6 49.2
21:55 1009 29.8 838 24.75 2.4 36.3 164 9.5 49.1
22:00 1009 29.8 838 24.75 2.4 36.4 164 9.5 49.2
22:05 1009 29.8 838 24.75 2.5 36.5 164 9.6 49.3
22:10 1009 29.8 838 24.75 2.5 36.5 164 9.6 49.3
22:15 1009 29.8 838 24.75 2.3 36.1 164 9.4 48.9
22:20 1009 29.8 838 24.75 2.2 35.9 164 9.3 48.7
22:25 1009 29.8 838 24.75 2.2 35.9 164 9.3 48.7
22:30 1009 29.8 838 24.75 2.2 35.9 164 9.3 48.7
22:35 1009 29.8 838 24.75 2.3 36.2 164 9.5 49
22:40 1009 29.8 838 24.75 2.4 36.2 164 9.5 49.1
22:45 1009 29.8 838 24.75 2.3 36.1 164 9.4 48.9
22:50 1009 29.8 838 24.75 2.2 36 164 9.4 48.8
22:55 1009 29.8 838 24.75 2.2 36 164 9.3 48.8
23:00 1009 29.8 838 24.75 2.2 35.9 164 9.3 48.7
23:05 1009 29.8 838 24.75 2.4 36.3 164 9.5 49.1
23:10 1009 29.8 838 24.75 2.5 36.4 164 9.6 49.3
23:15 1009 29.8 838 24.75 2.6 36.6 164 9.7 49.4
23:20 1009 29.8 838 24.75 2.6 36.7 164 9.7 49.5
23:25 1009 29.8 838 24.75 2.6 36.7 164 9.7 49.5
23:30 1009 29.8 838 24.75 2.7 36.8 164 9.8 49.7
23:35 1009 29.8 838 24.75 2.7 36.8 164 9.8 49.6
23:40 1009 29.8 838 24.75 2.6 36.7 164 9.7 49.5
23:45 1009 29.8 838 24.75 2.4 36.3 164 9.5 49.1
23:50 1009 29.8 838 24.75 2.2 36 164 9.4 48.8
23:55 1009 29.8 838 24.75 2.1 35.8 164 9.2 48.6
24:00 1009 29.8 838 24.75 2.1 35.7 164 9.2 48.5